sensor_id;sensor_type;location;lat;lon;timestamp;P1;durP1;ratioP1;P2;durP2;ratioP2
15645;SDS011;7922;43.622;1.476;2022-10-26T00:00:42;20.33;;;10.40;;
15645;SDS011;7922;43.622;1.476;2022-10-26T00:03:07;15.13;;;10.57;;
15645;SDS011;7922;43.622;1.476;2022-10-26T00:05:33;14.73;;;10.20;;
15645;SDS011;7922;43.622;1.476;2022-10-26T00:07:58;18.37;;;10.57;;
15645;SDS011;7922;43.622;1.476;2022-10-26T00:10:24;18.73;;;10.40;;
15645;SDS011;7922;43.622;1.476;2022-10-26T00:12:50;17.67;;;10.80;;
15645;SDS011;7922;43.622;1.476;2022-10-26T00:15:16;20.10;;;11.53;;
15645;SDS011;7922;43.622;1.476;2022-10-26T00:17:43;14.30;;;10.50;;
15645;SDS011;7922;43.622;1.476;2022-10-26T00:20:08;15.90;;;10.70;;
15645;SDS011;7922;43.622;1.476;2022-10-26T00:22:34;16.90;;;10.37;;
15645;SDS011;7922;43.622;1.476;2022-10-26T00:24:59;16.60;;;10.93;;
15645;SDS011;7922;43.622;1.476;2022-10-26T00:27:24;13.53;;;9.53;;
15645;SDS011;7922;43.622;1.476;2022-10-26T00:29:50;16.07;;;10.90;;
15645;SDS011;7922;43.622;1.476;2022-10-26T00:32:15;15.37;;;10.37;;
15645;SDS011;7922;43.622;1.476;2022-10-26T00:34:41;16.60;;;9.67;;
15645;SDS011;7922;43.622;1.476;2022-10-26T00:37:06;18.83;;;11.07;;
15645;SDS011;7922;43.622;1.476;2022-10-26T00:39:31;17.47;;;10.93;;
15645;SDS011;7922;43.622;1.476;2022-10-26T00:41:57;20.33;;;10.23;;
15645;SDS011;7922;43.622;1.476;2022-10-26T00:47:14;19.63;;;10.83;;
15645;SDS011;7922;43.622;1.476;2022-10-26T00:49:43;15.00;;;10.30;;
15645;SDS011;7922;43.622;1.476;2022-10-26T00:52:11;16.83;;;9.67;;
15645;SDS011;7922;43.622;1.476;2022-10-26T00:54:38;15.50;;;10.47;;
15645;SDS011;7922;43.622;1.476;2022-10-26T00:57:03;18.73;;;10.33;;
15645;SDS011;7922;43.622;1.476;2022-10-26T00:59:29;19.03;;;10.33;;
15645;SDS011;7922;43.622;1.476;2022-10-26T01:01:55;17.63;;;10.80;;
15645;SDS011;7922;43.622;1.476;2022-10-26T01:04:20;18.10;;;10.27;;
15645;SDS011;7922;43.622;1.476;2022-10-26T01:06:45;17.83;;;10.50;;
15645;SDS011;7922;43.622;1.476;2022-10-26T01:09:11;15.43;;;10.20;;
15645;SDS011;7922;43.622;1.476;2022-10-26T01:11:37;19.33;;;10.10;;
15645;SDS011;7922;43.622;1.476;2022-10-26T01:14:03;18.13;;;10.07;;
15645;SDS011;7922;43.622;1.476;2022-10-26T01:27:29;16.13;;;10.10;;
15645;SDS011;7922;43.622;1.476;2022-10-26T01:33:30;21.87;;;11.53;;
15645;SDS011;7922;43.622;1.476;2022-10-26T01:41:22;17.67;;;10.60;;
15645;SDS011;7922;43.622;1.476;2022-10-26T01:43:55;17.17;;;10.80;;
15645;SDS011;7922;43.622;1.476;2022-10-26T01:46:25;19.77;;;10.90;;
15645;SDS011;7922;43.622;1.476;2022-10-26T01:48:52;14.73;;;9.83;;
15645;SDS011;7922;43.622;1.476;2022-10-26T01:51:20;18.60;;;11.00;;
15645;SDS011;7922;43.622;1.476;2022-10-26T01:53:46;17.63;;;11.20;;
15645;SDS011;7922;43.622;1.476;2022-10-26T01:56:21;19.20;;;11.10;;
15645;SDS011;7922;43.622;1.476;2022-10-26T02:15:44;17.73;;;11.30;;
15645;SDS011;7922;43.622;1.476;2022-10-26T02:20:52;18.03;;;11.73;;
15645;SDS011;7922;43.622;1.476;2022-10-26T02:23:20;21.47;;;11.93;;
15645;SDS011;7922;43.622;1.476;2022-10-26T02:25:48;20.90;;;11.47;;
15645;SDS011;7922;43.622;1.476;2022-10-26T02:28:17;16.10;;;10.93;;
15645;SDS011;7922;43.622;1.476;2022-10-26T02:30:45;23.07;;;11.87;;
15645;SDS011;7922;43.622;1.476;2022-10-26T02:33:12;15.60;;;11.40;;
15645;SDS011;7922;43.622;1.476;2022-10-26T02:35:38;18.60;;;11.10;;
15645;SDS011;7922;43.622;1.476;2022-10-26T02:38:09;18.97;;;11.87;;
15645;SDS011;7922;43.622;1.476;2022-10-26T02:40:35;18.23;;;11.23;;
15645;SDS011;7922;43.622;1.476;2022-10-26T02:43:03;14.40;;;11.13;;
15645;SDS011;7922;43.622;1.476;2022-10-26T02:45:32;17.40;;;11.33;;
15645;SDS011;7922;43.622;1.476;2022-10-26T02:47:59;20.97;;;11.07;;
15645;SDS011;7922;43.622;1.476;2022-10-26T02:55:45;20.43;;;11.20;;
15645;SDS011;7922;43.622;1.476;2022-10-26T02:58:17;18.23;;;10.57;;
15645;SDS011;7922;43.622;1.476;2022-10-26T03:00:46;15.80;;;11.00;;
15645;SDS011;7922;43.622;1.476;2022-10-26T03:03:11;18.20;;;10.87;;
15645;SDS011;7922;43.622;1.476;2022-10-26T03:05:39;16.67;;;10.73;;
15645;SDS011;7922;43.622;1.476;2022-10-26T03:08:06;14.70;;;10.73;;
15645;SDS011;7922;43.622;1.476;2022-10-26T03:10:31;16.37;;;10.83;;
15645;SDS011;7922;43.622;1.476;2022-10-26T03:12:57;14.70;;;10.73;;
15645;SDS011;7922;43.622;1.476;2022-10-26T03:15:23;15.93;;;11.33;;
15645;SDS011;7922;43.622;1.476;2022-10-26T03:17:48;16.23;;;10.67;;
15645;SDS011;7922;43.622;1.476;2022-10-26T03:20:13;17.80;;;11.77;;
15645;SDS011;7922;43.622;1.476;2022-10-26T03:22:39;14.80;;;10.27;;
15645;SDS011;7922;43.622;1.476;2022-10-26T03:25:04;15.93;;;10.27;;
15645;SDS011;7922;43.622;1.476;2022-10-26T03:27:30;15.77;;;10.40;;
15645;SDS011;7922;43.622;1.476;2022-10-26T03:29:55;12.37;;;10.23;;
15645;SDS011;7922;43.622;1.476;2022-10-26T03:32:21;11.13;;;9.53;;
15645;SDS011;7922;43.622;1.476;2022-10-26T03:34:47;17.30;;;10.27;;
15645;SDS011;7922;43.622;1.476;2022-10-26T03:37:12;14.70;;;10.23;;
15645;SDS011;7922;43.622;1.476;2022-10-26T03:39:38;16.50;;;10.07;;
15645;SDS011;7922;43.622;1.476;2022-10-26T03:42:03;14.80;;;10.23;;
15645;SDS011;7922;43.622;1.476;2022-10-26T03:44:28;16.90;;;11.17;;
15645;SDS011;7922;43.622;1.476;2022-10-26T03:46:55;14.90;;;10.13;;
15645;SDS011;7922;43.622;1.476;2022-10-26T03:49:20;14.03;;;10.30;;
15645;SDS011;7922;43.622;1.476;2022-10-26T03:51:45;12.87;;;10.20;;
15645;SDS011;7922;43.622;1.476;2022-10-26T03:54:11;14.03;;;9.63;;
15645;SDS011;7922;43.622;1.476;2022-10-26T03:56:36;13.90;;;8.83;;
15645;SDS011;7922;43.622;1.476;2022-10-26T03:59:01;13.87;;;9.70;;
15645;SDS011;7922;43.622;1.476;2022-10-26T04:01:27;16.00;;;9.33;;
15645;SDS011;7922;43.622;1.476;2022-10-26T04:03:52;13.53;;;8.90;;
15645;SDS011;7922;43.622;1.476;2022-10-26T04:06:18;11.77;;;9.70;;
15645;SDS011;7922;43.622;1.476;2022-10-26T04:08:43;15.43;;;9.47;;
15645;SDS011;7922;43.622;1.476;2022-10-26T04:11:08;13.47;;;9.70;;
15645;SDS011;7922;43.622;1.476;2022-10-26T04:13:34;13.13;;;9.77;;
15645;SDS011;7922;43.622;1.476;2022-10-26T04:15:59;14.80;;;9.93;;
15645;SDS011;7922;43.622;1.476;2022-10-26T04:18:24;14.00;;;8.27;;
15645;SDS011;7922;43.622;1.476;2022-10-26T04:20:50;12.60;;;8.43;;
15645;SDS011;7922;43.622;1.476;2022-10-26T04:23:16;14.43;;;10.10;;
15645;SDS011;7922;43.622;1.476;2022-10-26T04:25:42;11.67;;;9.43;;
15645;SDS011;7922;43.622;1.476;2022-10-26T04:28:09;15.20;;;10.07;;
15645;SDS011;7922;43.622;1.476;2022-10-26T04:30:35;14.30;;;10.43;;
15645;SDS011;7922;43.622;1.476;2022-10-26T04:33:01;14.87;;;9.50;;
15645;SDS011;7922;43.622;1.476;2022-10-26T04:35:27;14.43;;;9.67;;
15645;SDS011;7922;43.622;1.476;2022-10-26T04:38:00;14.47;;;9.67;;
15645;SDS011;7922;43.622;1.476;2022-10-26T04:40:26;13.63;;;9.53;;
15645;SDS011;7922;43.622;1.476;2022-10-26T04:42:52;13.83;;;9.73;;
15645;SDS011;7922;43.622;1.476;2022-10-26T04:45:18;14.93;;;10.40;;
15645;SDS011;7922;43.622;1.476;2022-10-26T04:47:44;13.87;;;10.03;;
15645;SDS011;7922;43.622;1.476;2022-10-26T04:50:10;15.13;;;10.17;;
15645;SDS011;7922;43.622;1.476;2022-10-26T04:52:36;18.80;;;11.07;;
15645;SDS011;7922;43.622;1.476;2022-10-26T04:55:01;15.17;;;11.20;;
15645;SDS011;7922;43.622;1.476;2022-10-26T04:57:30;17.60;;;11.43;;
15645;SDS011;7922;43.622;1.476;2022-10-26T04:59:56;15.77;;;12.07;;
15645;SDS011;7922;43.622;1.476;2022-10-26T05:02:21;18.87;;;12.13;;
15645;SDS011;7922;43.622;1.476;2022-10-26T05:04:47;18.80;;;12.73;;
15645;SDS011;7922;43.622;1.476;2022-10-26T05:07:12;19.27;;;12.43;;
15645;SDS011;7922;43.622;1.476;2022-10-26T05:09:37;20.33;;;12.93;;
15645;SDS011;7922;43.622;1.476;2022-10-26T05:12:03;17.30;;;13.17;;
15645;SDS011;7922;43.622;1.476;2022-10-26T05:14:28;19.47;;;13.20;;
15645;SDS011;7922;43.622;1.476;2022-10-26T05:16:54;19.27;;;13.93;;
15645;SDS011;7922;43.622;1.476;2022-10-26T05:19:20;19.57;;;13.60;;
15645;SDS011;7922;43.622;1.476;2022-10-26T05:21:45;20.27;;;12.90;;
15645;SDS011;7922;43.622;1.476;2022-10-26T05:24:11;16.60;;;13.47;;
15645;SDS011;7922;43.622;1.476;2022-10-26T05:26:36;22.73;;;14.00;;
15645;SDS011;7922;43.622;1.476;2022-10-26T05:29:01;18.37;;;12.77;;
15645;SDS011;7922;43.622;1.476;2022-10-26T05:31:27;19.50;;;12.70;;
15645;SDS011;7922;43.622;1.476;2022-10-26T05:33:52;18.90;;;12.40;;
15645;SDS011;7922;43.622;1.476;2022-10-26T05:36:18;20.00;;;12.97;;
15645;SDS011;7922;43.622;1.476;2022-10-26T05:38:43;20.50;;;12.60;;
15645;SDS011;7922;43.622;1.476;2022-10-26T05:41:09;22.00;;;12.73;;
15645;SDS011;7922;43.622;1.476;2022-10-26T05:43:34;19.13;;;12.63;;
15645;SDS011;7922;43.622;1.476;2022-10-26T05:45:59;20.83;;;13.53;;
15645;SDS011;7922;43.622;1.476;2022-10-26T05:48:25;18.97;;;13.20;;
15645;SDS011;7922;43.622;1.476;2022-10-26T05:50:50;20.33;;;12.77;;
15645;SDS011;7922;43.622;1.476;2022-10-26T05:53:16;22.27;;;12.80;;
15645;SDS011;7922;43.622;1.476;2022-10-26T05:55:41;19.80;;;13.00;;
15645;SDS011;7922;43.622;1.476;2022-10-26T05:58:11;16.23;;;12.50;;
15645;SDS011;7922;43.622;1.476;2022-10-26T06:00:39;23.13;;;12.93;;
15645;SDS011;7922;43.622;1.476;2022-10-26T06:06:23;15.53;;;12.70;;
15645;SDS011;7922;43.622;1.476;2022-10-26T06:08:48;19.50;;;12.60;;
15645;SDS011;7922;43.622;1.476;2022-10-26T06:11:14;22.10;;;13.30;;
15645;SDS011;7922;43.622;1.476;2022-10-26T06:13:39;22.60;;;13.20;;
15645;SDS011;7922;43.622;1.476;2022-10-26T06:30:08;19.37;;;11.93;;
15645;SDS011;7922;43.622;1.476;2022-10-26T06:32:35;18.10;;;11.83;;
15645;SDS011;7922;43.622;1.476;2022-10-26T06:35:06;16.07;;;12.00;;
15645;SDS011;7922;43.622;1.476;2022-10-26T06:37:35;17.37;;;12.97;;
15645;SDS011;7922;43.622;1.476;2022-10-26T06:40:01;19.27;;;14.37;;
15645;SDS011;7922;43.622;1.476;2022-10-26T06:42:29;20.80;;;13.73;;
15645;SDS011;7922;43.622;1.476;2022-10-26T06:44:55;24.07;;;14.70;;
15645;SDS011;7922;43.622;1.476;2022-10-26T06:47:26;25.37;;;15.27;;
15645;SDS011;7922;43.622;1.476;2022-10-26T06:55:12;24.90;;;15.63;;
15645;SDS011;7922;43.622;1.476;2022-10-26T06:57:39;22.57;;;15.40;;
15645;SDS011;7922;43.622;1.476;2022-10-26T07:00:07;25.50;;;16.40;;
15645;SDS011;7922;43.622;1.476;2022-10-26T07:02:45;26.73;;;15.33;;
15645;SDS011;7922;43.622;1.476;2022-10-26T07:05:11;27.20;;;16.27;;
15645;SDS011;7922;43.622;1.476;2022-10-26T07:07:40;26.40;;;17.53;;
15645;SDS011;7922;43.622;1.476;2022-10-26T07:10:07;25.23;;;17.80;;
15645;SDS011;7922;43.622;1.476;2022-10-26T07:12:33;25.47;;;17.23;;
15645;SDS011;7922;43.622;1.476;2022-10-26T07:14:58;27.70;;;17.60;;
15645;SDS011;7922;43.622;1.476;2022-10-26T07:17:24;23.93;;;17.23;;
15645;SDS011;7922;43.622;1.476;2022-10-26T07:19:52;24.70;;;17.17;;
15645;SDS011;7922;43.622;1.476;2022-10-26T07:22:18;28.20;;;17.60;;
15645;SDS011;7922;43.622;1.476;2022-10-26T07:24:43;25.10;;;17.30;;
15645;SDS011;7922;43.622;1.476;2022-10-26T07:27:08;31.10;;;17.03;;
15645;SDS011;7922;43.622;1.476;2022-10-26T07:29:34;28.07;;;18.33;;
15645;SDS011;7922;43.622;1.476;2022-10-26T07:31:59;27.37;;;17.67;;
15645;SDS011;7922;43.622;1.476;2022-10-26T07:34:25;29.83;;;17.57;;
15645;SDS011;7922;43.622;1.476;2022-10-26T07:36:50;28.13;;;18.03;;
15645;SDS011;7922;43.622;1.476;2022-10-26T07:39:16;23.60;;;16.80;;
15645;SDS011;7922;43.622;1.476;2022-10-26T07:41:41;24.47;;;17.83;;
15645;SDS011;7922;43.622;1.476;2022-10-26T07:44:06;32.87;;;18.67;;
15645;SDS011;7922;43.622;1.476;2022-10-26T07:46:32;24.90;;;17.37;;
15645;SDS011;7922;43.622;1.476;2022-10-26T07:48:57;25.80;;;16.57;;
15645;SDS011;7922;43.622;1.476;2022-10-26T07:51:23;25.07;;;16.43;;
15645;SDS011;7922;43.622;1.476;2022-10-26T07:53:48;26.73;;;17.37;;
15645;SDS011;7922;43.622;1.476;2022-10-26T07:56:15;24.73;;;14.97;;
15645;SDS011;7922;43.622;1.476;2022-10-26T07:58:40;24.53;;;15.90;;
15645;SDS011;7922;43.622;1.476;2022-10-26T08:03:32;19.60;;;14.23;;
15645;SDS011;7922;43.622;1.476;2022-10-26T08:05:58;24.40;;;14.93;;
15645;SDS011;7922;43.622;1.476;2022-10-26T08:08:23;22.43;;;14.10;;
15645;SDS011;7922;43.622;1.476;2022-10-26T08:10:48;19.40;;;13.17;;
15645;SDS011;7922;43.622;1.476;2022-10-26T08:13:15;19.00;;;12.67;;
15645;SDS011;7922;43.622;1.476;2022-10-26T08:15:40;21.30;;;13.57;;
15645;SDS011;7922;43.622;1.476;2022-10-26T08:18:06;22.47;;;12.97;;
15645;SDS011;7922;43.622;1.476;2022-10-26T08:20:31;24.83;;;12.90;;
15645;SDS011;7922;43.622;1.476;2022-10-26T08:22:57;19.83;;;12.23;;
15645;SDS011;7922;43.622;1.476;2022-10-26T08:25:23;23.10;;;12.50;;
15645;SDS011;7922;43.622;1.476;2022-10-26T08:27:49;17.77;;;13.13;;
15645;SDS011;7922;43.622;1.476;2022-10-26T08:30:15;22.30;;;12.40;;
15645;SDS011;7922;43.622;1.476;2022-10-26T08:32:40;21.50;;;11.63;;
15645;SDS011;7922;43.622;1.476;2022-10-26T08:35:09;26.40;;;12.37;;
15645;SDS011;7922;43.622;1.476;2022-10-26T08:37:34;21.03;;;12.00;;
15645;SDS011;7922;43.622;1.476;2022-10-26T08:40:00;23.67;;;11.03;;
15645;SDS011;7922;43.622;1.476;2022-10-26T08:42:32;15.60;;;10.60;;
15645;SDS011;7922;43.622;1.476;2022-10-26T08:45:04;19.70;;;10.73;;
15645;SDS011;7922;43.622;1.476;2022-10-26T08:47:36;18.63;;;10.27;;
15645;SDS011;7922;43.622;1.476;2022-10-26T08:50:12;15.53;;;9.90;;
15645;SDS011;7922;43.622;1.476;2022-10-26T08:55:23;21.13;;;10.10;;
15645;SDS011;7922;43.622;1.476;2022-10-26T08:57:50;19.93;;;8.97;;
15645;SDS011;7922;43.622;1.476;2022-10-26T09:00:18;18.47;;;9.23;;
15645;SDS011;7922;43.622;1.476;2022-10-26T09:02:48;20.67;;;9.30;;
15645;SDS011;7922;43.622;1.476;2022-10-26T09:05:15;17.90;;;8.13;;
15645;SDS011;7922;43.622;1.476;2022-10-26T09:10:19;12.80;;;6.80;;
15645;SDS011;7922;43.622;1.476;2022-10-26T09:13:06;18.10;;;8.00;;
15645;SDS011;7922;43.622;1.476;2022-10-26T09:21:09;18.27;;;7.57;;
15645;SDS011;7922;43.622;1.476;2022-10-26T09:29:05;17.07;;;6.70;;
15645;SDS011;7922;43.622;1.476;2022-10-26T09:31:44;14.60;;;6.97;;
15645;SDS011;7922;43.622;1.476;2022-10-26T09:37:31;18.93;;;7.10;;
15645;SDS011;7922;43.622;1.476;2022-10-26T09:42:39;15.03;;;6.90;;
15645;SDS011;7922;43.622;1.476;2022-10-26T09:45:19;15.50;;;6.03;;
15645;SDS011;7922;43.622;1.476;2022-10-26T09:47:49;14.00;;;6.50;;
15645;SDS011;7922;43.622;1.476;2022-10-26T09:53:15;13.13;;;6.73;;
15645;SDS011;7922;43.622;1.476;2022-10-26T09:55:41;15.40;;;7.17;;
15645;SDS011;7922;43.622;1.476;2022-10-26T09:58:12;13.93;;;6.60;;
15645;SDS011;7922;43.622;1.476;2022-10-26T10:00:39;16.33;;;6.53;;
15645;SDS011;7922;43.622;1.476;2022-10-26T10:03:16;16.43;;;6.90;;
15645;SDS011;7922;43.622;1.476;2022-10-26T10:05:45;13.53;;;7.20;;
15645;SDS011;7922;43.622;1.476;2022-10-26T10:08:18;16.30;;;7.33;;
15645;SDS011;7922;43.622;1.476;2022-10-26T10:11:06;13.60;;;7.00;;
15645;SDS011;7922;43.622;1.476;2022-10-26T10:13:35;14.90;;;7.40;;
15645;SDS011;7922;43.622;1.476;2022-10-26T10:16:12;14.17;;;7.53;;
15645;SDS011;7922;43.622;1.476;2022-10-26T10:18:39;14.43;;;7.07;;
15645;SDS011;7922;43.622;1.476;2022-10-26T10:21:05;15.73;;;7.17;;
15645;SDS011;7922;43.622;1.476;2022-10-26T10:23:35;19.97;;;7.57;;
15645;SDS011;7922;43.622;1.476;2022-10-26T10:26:04;14.47;;;7.03;;
15645;SDS011;7922;43.622;1.476;2022-10-26T10:28:32;16.50;;;7.27;;
15645;SDS011;7922;43.622;1.476;2022-10-26T10:31:02;14.00;;;7.20;;
15645;SDS011;7922;43.622;1.476;2022-10-26T10:33:35;15.53;;;7.60;;
15645;SDS011;7922;43.622;1.476;2022-10-26T10:36:05;14.03;;;7.23;;
15645;SDS011;7922;43.622;1.476;2022-10-26T10:38:37;12.17;;;7.60;;
15645;SDS011;7922;43.622;1.476;2022-10-26T10:41:03;14.93;;;7.57;;
15645;SDS011;7922;43.622;1.476;2022-10-26T10:43:29;13.33;;;6.80;;
15645;SDS011;7922;43.622;1.476;2022-10-26T10:45:55;17.50;;;6.97;;
15645;SDS011;7922;43.622;1.476;2022-10-26T10:48:25;13.83;;;6.97;;
15645;SDS011;7922;43.622;1.476;2022-10-26T10:53:41;15.87;;;6.23;;
15645;SDS011;7922;43.622;1.476;2022-10-26T10:56:30;17.30;;;6.63;;
15645;SDS011;7922;43.622;1.476;2022-10-26T11:07:01;11.20;;;5.60;;
15645;SDS011;7922;43.622;1.476;2022-10-26T11:09:28;11.67;;;6.23;;
15645;SDS011;7922;43.622;1.476;2022-10-26T11:11:57;10.20;;;5.73;;
15645;SDS011;7922;43.622;1.476;2022-10-26T11:14:43;14.83;;;5.93;;
15645;SDS011;7922;43.622;1.476;2022-10-26T11:22:14;14.67;;;6.23;;
15645;SDS011;7922;43.622;1.476;2022-10-26T11:24:46;11.60;;;5.93;;
15645;SDS011;7922;43.622;1.476;2022-10-26T11:27:22;13.13;;;5.93;;
15645;SDS011;7922;43.622;1.476;2022-10-26T11:30:00;10.43;;;5.67;;
15645;SDS011;7922;43.622;1.476;2022-10-26T11:34:59;11.90;;;6.10;;
15645;SDS011;7922;43.622;1.476;2022-10-26T11:37:38;12.80;;;5.90;;
15645;SDS011;7922;43.622;1.476;2022-10-26T11:45:41;14.63;;;6.40;;
15645;SDS011;7922;43.622;1.476;2022-10-26T11:48:22;16.33;;;6.10;;
15645;SDS011;7922;43.622;1.476;2022-10-26T11:50:53;14.33;;;6.37;;
15645;SDS011;7922;43.622;1.476;2022-10-26T11:59:09;20.73;;;5.93;;
15645;SDS011;7922;43.622;1.476;2022-10-26T12:01:41;14.77;;;5.63;;
15645;SDS011;7922;43.622;1.476;2022-10-26T12:04:07;14.67;;;6.60;;
15645;SDS011;7922;43.622;1.476;2022-10-26T12:06:32;14.23;;;5.07;;
15645;SDS011;7922;43.622;1.476;2022-10-26T12:09:01;10.73;;;5.37;;
15645;SDS011;7922;43.622;1.476;2022-10-26T12:11:43;12.30;;;5.83;;
15645;SDS011;7922;43.622;1.476;2022-10-26T12:21:47;12.57;;;5.47;;
15645;SDS011;7922;43.622;1.476;2022-10-26T12:26:57;13.53;;;5.97;;
15645;SDS011;7922;43.622;1.476;2022-10-26T12:32:00;12.50;;;5.57;;
15645;SDS011;7922;43.622;1.476;2022-10-26T12:39:39;10.10;;;5.90;;
15645;SDS011;7922;43.622;1.476;2022-10-26T12:52:58;12.97;;;4.90;;
15645;SDS011;7922;43.622;1.476;2022-10-26T12:58:06;9.77;;;4.90;;
15645;SDS011;7922;43.622;1.476;2022-10-26T13:08:42;15.63;;;5.87;;
15645;SDS011;7922;43.622;1.476;2022-10-26T13:13:53;15.33;;;5.93;;
15645;SDS011;7922;43.622;1.476;2022-10-26T13:16:20;13.93;;;5.33;;
15645;SDS011;7922;43.622;1.476;2022-10-26T13:18:48;14.07;;;5.20;;
15645;SDS011;7922;43.622;1.476;2022-10-26T13:21:17;13.73;;;5.10;;
15645;SDS011;7922;43.622;1.476;2022-10-26T13:24:01;9.87;;;4.47;;
15645;SDS011;7922;43.622;1.476;2022-10-26T13:26:32;10.43;;;5.23;;
15645;SDS011;7922;43.622;1.476;2022-10-26T13:29:29;13.20;;;4.80;;
15645;SDS011;7922;43.622;1.476;2022-10-26T13:31:55;11.17;;;4.83;;
15645;SDS011;7922;43.622;1.476;2022-10-26T13:34:21;13.70;;;4.93;;
15645;SDS011;7922;43.622;1.476;2022-10-26T13:36:50;11.87;;;5.23;;
15645;SDS011;7922;43.622;1.476;2022-10-26T13:39:32;11.10;;;4.37;;
15645;SDS011;7922;43.622;1.476;2022-10-26T13:42:00;10.97;;;5.13;;
15645;SDS011;7922;43.622;1.476;2022-10-26T13:47:26;10.33;;;4.90;;
15645;SDS011;7922;43.622;1.476;2022-10-26T13:49:54;13.80;;;5.00;;
15645;SDS011;7922;43.622;1.476;2022-10-26T13:52:27;15.70;;;5.20;;
15645;SDS011;7922;43.622;1.476;2022-10-26T13:55:02;10.00;;;5.27;;
15645;SDS011;7922;43.622;1.476;2022-10-26T13:57:37;11.80;;;4.80;;
15645;SDS011;7922;43.622;1.476;2022-10-26T14:00:08;13.80;;;4.83;;
15645;SDS011;7922;43.622;1.476;2022-10-26T14:02:41;11.53;;;5.07;;
15645;SDS011;7922;43.622;1.476;2022-10-26T14:05:08;13.17;;;5.07;;
15645;SDS011;7922;43.622;1.476;2022-10-26T14:07:35;14.10;;;5.50;;
15645;SDS011;7922;43.622;1.476;2022-10-26T14:10:03;10.50;;;5.13;;
15645;SDS011;7922;43.622;1.476;2022-10-26T14:12:30;12.00;;;5.40;;
15645;SDS011;7922;43.622;1.476;2022-10-26T14:15:01;12.10;;;5.03;;
15645;SDS011;7922;43.622;1.476;2022-10-26T14:17:29;12.47;;;5.17;;
15645;SDS011;7922;43.622;1.476;2022-10-26T14:19:55;12.87;;;5.00;;
15645;SDS011;7922;43.622;1.476;2022-10-26T14:22:21;13.00;;;5.97;;
15645;SDS011;7922;43.622;1.476;2022-10-26T14:24:52;9.47;;;5.63;;
15645;SDS011;7922;43.622;1.476;2022-10-26T14:27:22;15.30;;;5.57;;
15645;SDS011;7922;43.622;1.476;2022-10-26T14:29:50;13.47;;;6.40;;
15645;SDS011;7922;43.622;1.476;2022-10-26T14:32:22;11.97;;;6.73;;
15645;SDS011;7922;43.622;1.476;2022-10-26T14:34:51;13.13;;;6.27;;
15645;SDS011;7922;43.622;1.476;2022-10-26T14:37:39;14.43;;;6.07;;
15645;SDS011;7922;43.622;1.476;2022-10-26T14:40:22;15.40;;;7.07;;
15645;SDS011;7922;43.622;1.476;2022-10-26T14:43:02;12.57;;;6.60;;
15645;SDS011;7922;43.622;1.476;2022-10-26T14:45:36;16.27;;;6.93;;
15645;SDS011;7922;43.622;1.476;2022-10-26T14:48:03;12.77;;;6.97;;
15645;SDS011;7922;43.622;1.476;2022-10-26T14:50:30;12.03;;;6.00;;
15645;SDS011;7922;43.622;1.476;2022-10-26T14:52:58;12.90;;;6.43;;
15645;SDS011;7922;43.622;1.476;2022-10-26T14:55:26;14.53;;;5.73;;
15645;SDS011;7922;43.622;1.476;2022-10-26T14:57:52;14.63;;;7.00;;
15645;SDS011;7922;43.622;1.476;2022-10-26T15:00:32;16.60;;;6.20;;
15645;SDS011;7922;43.622;1.476;2022-10-26T15:02:58;10.27;;;6.33;;
15645;SDS011;7922;43.622;1.476;2022-10-26T15:05:27;11.27;;;5.97;;
15645;SDS011;7922;43.622;1.476;2022-10-26T15:07:56;14.10;;;6.70;;
15645;SDS011;7922;43.622;1.476;2022-10-26T15:15:34;14.40;;;6.80;;
15645;SDS011;7922;43.622;1.476;2022-10-26T15:18:00;16.57;;;6.40;;
15645;SDS011;7922;43.622;1.476;2022-10-26T15:20:26;18.10;;;7.40;;
15645;SDS011;7922;43.622;1.476;2022-10-26T15:22:54;15.13;;;6.60;;
15645;SDS011;7922;43.622;1.476;2022-10-26T15:25:21;13.57;;;6.90;;
15645;SDS011;7922;43.622;1.476;2022-10-26T15:27:49;14.90;;;6.77;;
15645;SDS011;7922;43.622;1.476;2022-10-26T15:30:17;14.93;;;6.30;;
15645;SDS011;7922;43.622;1.476;2022-10-26T15:32:50;15.37;;;7.23;;
15645;SDS011;7922;43.622;1.476;2022-10-26T15:37:45;16.23;;;6.97;;
15645;SDS011;7922;43.622;1.476;2022-10-26T15:40:11;13.13;;;6.37;;
15645;SDS011;7922;43.622;1.476;2022-10-26T15:42:37;12.70;;;6.53;;
15645;SDS011;7922;43.622;1.476;2022-10-26T15:45:05;17.03;;;7.20;;
15645;SDS011;7922;43.622;1.476;2022-10-26T15:47:45;13.27;;;6.47;;
15645;SDS011;7922;43.622;1.476;2022-10-26T15:50:12;14.03;;;6.90;;
15645;SDS011;7922;43.622;1.476;2022-10-26T15:52:38;10.63;;;7.23;;
15645;SDS011;7922;43.622;1.476;2022-10-26T15:55:04;12.00;;;6.43;;
15645;SDS011;7922;43.622;1.476;2022-10-26T15:57:29;15.50;;;6.30;;
15645;SDS011;7922;43.622;1.476;2022-10-26T15:59:55;9.83;;;7.17;;
15645;SDS011;7922;43.622;1.476;2022-10-26T16:02:20;15.00;;;7.00;;
15645;SDS011;7922;43.622;1.476;2022-10-26T16:04:46;17.77;;;6.67;;
15645;SDS011;7922;43.622;1.476;2022-10-26T16:07:11;16.97;;;7.70;;
15645;SDS011;7922;43.622;1.476;2022-10-26T16:09:37;11.30;;;7.53;;
15645;SDS011;7922;43.622;1.476;2022-10-26T16:12:03;14.90;;;7.20;;
15645;SDS011;7922;43.622;1.476;2022-10-26T16:14:28;14.77;;;7.33;;
15645;SDS011;7922;43.622;1.476;2022-10-26T16:16:54;13.37;;;7.13;;
15645;SDS011;7922;43.622;1.476;2022-10-26T16:19:19;14.80;;;7.03;;
15645;SDS011;7922;43.622;1.476;2022-10-26T16:21:45;14.73;;;6.83;;
15645;SDS011;7922;43.622;1.476;2022-10-26T16:24:10;16.77;;;7.67;;
15645;SDS011;7922;43.622;1.476;2022-10-26T16:26:35;16.20;;;6.80;;
15645;SDS011;7922;43.622;1.476;2022-10-26T16:29:01;14.47;;;7.53;;
15645;SDS011;7922;43.622;1.476;2022-10-26T16:31:26;14.43;;;6.93;;
15645;SDS011;7922;43.622;1.476;2022-10-26T16:33:52;14.13;;;7.40;;
15645;SDS011;7922;43.622;1.476;2022-10-26T16:36:17;13.87;;;7.00;;
15645;SDS011;7922;43.622;1.476;2022-10-26T16:38:43;12.87;;;6.80;;
15645;SDS011;7922;43.622;1.476;2022-10-26T16:41:09;15.70;;;7.10;;
15645;SDS011;7922;43.622;1.476;2022-10-26T16:43:37;14.47;;;7.40;;
15645;SDS011;7922;43.622;1.476;2022-10-26T16:46:07;13.30;;;7.37;;
15645;SDS011;7922;43.622;1.476;2022-10-26T16:48:35;11.53;;;7.17;;
15645;SDS011;7922;43.622;1.476;2022-10-26T16:51:07;15.27;;;7.53;;
15645;SDS011;7922;43.622;1.476;2022-10-26T16:53:37;13.10;;;7.60;;
15645;SDS011;7922;43.622;1.476;2022-10-26T16:56:04;12.77;;;7.73;;
15645;SDS011;7922;43.622;1.476;2022-10-26T16:58:31;15.20;;;8.00;;
15645;SDS011;7922;43.622;1.476;2022-10-26T17:00:57;15.40;;;8.23;;
15645;SDS011;7922;43.622;1.476;2022-10-26T17:03:22;14.63;;;7.63;;
15645;SDS011;7922;43.622;1.476;2022-10-26T17:05:53;13.23;;;7.73;;
15645;SDS011;7922;43.622;1.476;2022-10-26T17:08:20;16.07;;;7.57;;
15645;SDS011;7922;43.622;1.476;2022-10-26T17:10:45;16.67;;;7.47;;
15645;SDS011;7922;43.622;1.476;2022-10-26T17:13:10;18.07;;;8.17;;
15645;SDS011;7922;43.622;1.476;2022-10-26T17:15:36;17.80;;;8.33;;
15645;SDS011;7922;43.622;1.476;2022-10-26T17:18:01;16.40;;;7.83;;
15645;SDS011;7922;43.622;1.476;2022-10-26T17:20:27;18.93;;;7.60;;
15645;SDS011;7922;43.622;1.476;2022-10-26T17:22:54;14.43;;;7.63;;
15645;SDS011;7922;43.622;1.476;2022-10-26T17:25:19;15.73;;;7.37;;
15645;SDS011;7922;43.622;1.476;2022-10-26T17:27:44;17.87;;;8.10;;
15645;SDS011;7922;43.622;1.476;2022-10-26T17:30:10;18.20;;;8.40;;
15645;SDS011;7922;43.622;1.476;2022-10-26T17:32:36;13.57;;;8.30;;
15645;SDS011;7922;43.622;1.476;2022-10-26T17:35:01;15.23;;;8.17;;
15645;SDS011;7922;43.622;1.476;2022-10-26T17:37:26;15.33;;;8.33;;
15645;SDS011;7922;43.622;1.476;2022-10-26T17:39:52;19.77;;;9.43;;
15645;SDS011;7922;43.622;1.476;2022-10-26T17:42:17;16.60;;;8.67;;
15645;SDS011;7922;43.622;1.476;2022-10-26T17:44:43;15.37;;;8.77;;